Time;durP1;ratioP1;P1;durP2;ratioP2;P2;SDS_P1;SDS_P2;PMS_P1;PMS_P2;Temp;Humidity;BMP_temperature;BMP_pressure;BME280_temperature;BME280_humidity;BME280_pressure;Samples;Min_cycle;Max_cycle;Signal;HPM_P1;HPM_P2
2022/11/18 00:00:55;;;;;;;20.15;5.05;;;;;;;-3.07;62.91;98885.00;6248353;22;20068;-87
2022/11/18 00:03:46;;;;;;;10.52;4.85;;;;;;;-3.02;63.20;98878.94;6222787;22;20094;-87
2022/11/18 00:06:31;;;;;;;5.38;3.17;;;;;;;-3.50;62.74;98816.72;6227006;22;20027;-90
2022/11/18 00:10:22;;;;;;;9.95;4.93;;;;;;;-3.11;62.11;98886.53;6252655;22;20031;-87
2022/11/18 00:17:06;;;;;;;8.43;4.22;;;;;;;-3.58;62.11;98791.16;6243154;23;20047;-88
2022/11/18 00:20:38;;;;;;;9.10;4.47;;;;;;;-3.05;62.96;98863.38;6219885;23;20063;-89
2022/11/18 00:23:29;;;;;;;10.40;4.78;;;;;;;-3.08;62.88;98875.34;6198528;23;20047;-89
2022/11/18 00:29:04;;;;;;;5.65;2.63;;;;;;;-3.41;62.13;98801.97;6242780;23;20039;-86
2022/11/18 00:31:31;;;;;;;8.35;4.13;;;;;;;-3.52;62.02;98807.31;6216957;23;20019;-87
2022/11/18 00:34:06;;;;;;;6.20;3.33;;;;;;;-3.61;62.63;98807.69;6244075;23;20012;-86
2022/11/18 00:36:57;;;;;;;14.63;4.68;;;;;;;-3.21;62.78;98859.56;6245044;23;20129;-87
2022/11/18 00:39:29;;;;;;;10.35;4.95;;;;;;;-3.70;62.45;98792.25;6243714;23;20042;-89
2022/11/18 00:44:42;;;;;;;14.60;5.20;;;;;;;-3.03;61.66;98851.41;6241896;23;20012;-87
2022/11/18 00:47:08;;;;;;;8.25;3.47;;;;;;;-3.20;62.01;98864.69;6194603;23;20020;-86
2022/11/18 00:49:34;;;;;;;8.77;4.40;;;;;;;-3.74;62.95;98775.88;6195821;23;20016;-89
2022/11/18 00:52:09;;;;;;;9.63;4.53;;;;;;;-3.35;62.52;98846.44;6243729;23;20047;-87
2022/11/18 00:54:48;;;;;;;9.18;4.38;;;;;;;-3.80;62.29;98774.13;6243055;23;20016;-86
2022/11/18 00:57:39;;;;;;;10.07;5.00;;;;;;;-3.29;63.15;98842.03;6244084;22;20468;-87
2022/11/18 01:00:12;;;;;;;14.63;4.30;;;;;;;-4.08;63.15;98732.09;6241949;23;20024;-87
2022/11/18 01:03:03;;;;;;;10.52;4.30;;;;;;;-3.23;62.73;98834.94;6244743;23;20435;-87
2022/11/18 01:05:36;;;;;;;17.88;4.72;;;;;;;-3.66;62.68;98783.50;6218886;23;20418;-87
2022/11/18 01:08:02;;;;;;;9.35;4.20;;;;;;;-3.39;62.83;98826.56;6220380;23;20020;-87
2022/11/18 01:10:29;;;;;;;5.47;3.17;;;;;;;-3.47;62.42;98804.75;6243727;22;20039;-87
2022/11/18 01:14:30;;;;;;;11.63;4.53;;;;;;;-3.16;63.08;98832.94;6137389;23;20020;-87
2022/11/18 01:17:21;;;;;;;7.60;4.28;;;;;;;-3.23;62.59;98833.06;6174972;23;20459;-87
2022/11/18 01:20:55;;;;;;;12.13;4.10;;;;;;;-3.17;62.67;98832.13;6155430;23;20127;-88
2022/11/18 01:23:46;;;;;;;7.03;4.07;;;;;;;-3.11;62.59;98823.19;6181035;23;20021;-88
2022/11/18 01:26:51;;;;;;;11.18;4.35;;;;;;;-3.02;61.88;98807.56;6155387;23;20898;-88
2022/11/18 01:30:19;;;;;;;6.25;3.70;;;;;;;-3.09;61.76;98821.06;6180222;23;20021;-91
2022/11/18 01:33:07;;;;;;;6.18;3.80;;;;;;;-3.20;62.79;98823.78;6180873;23;20072;-87
2022/11/18 01:36:32;;;;;;;11.43;3.60;;;;;;;-3.21;62.78;98832.81;6064206;23;20102;-86
2022/11/18 01:38:58;;;;;;;14.10;4.35;;;;;;;-3.39;62.10;98778.47;6039454;23;20019;-85
2022/11/18 01:41:36;;;;;;;8.52;3.75;;;;;;;-3.53;62.22;98774.44;6042772;23;20361;-87
2022/11/18 01:44:46;;;;;;;7.93;4.15;;;;;;;-3.21;62.42;98824.81;6039012;23;20019;-87
2022/11/18 01:47:22;;;;;;;9.27;3.95;;;;;;;-3.70;62.04;98760.19;6039569;23;20023;-87
2022/11/18 01:49:49;;;;;;;12.02;4.55;;;;;;;-3.71;62.17;98745.19;6054711;23;20025;-86
2022/11/18 01:52:22;;;;;;;10.18;4.97;;;;;;;-3.45;62.31;98800.78;6124819;23;20061;-90
2022/11/18 01:55:16;;;;;;;8.75;3.97;;;;;;;-3.23;62.36;98829.59;6104140;23;20085;-86
2022/11/18 01:57:48;;;;;;;6.90;3.60;;;;;;;-3.64;62.52;98773.41;6127028;23;20093;-86
2022/11/18 02:00:15;;;;;;;12.60;4.88;;;;;;;-3.51;62.44;98793.72;6124539;23;20029;-86
2022/11/18 02:02:50;;;;;;;10.52;4.68;;;;;;;-3.40;62.69;98800.09;6128304;23;20014;-94
2022/11/18 02:06:21;;;;;;;8.02;4.45;;;;;;;-3.35;62.80;98826.91;6129583;23;20661;-89
2022/11/18 02:12:36;;;;;;;5.22;2.47;;;;;;;-3.66;62.71;98780.84;6172256;23;20113;-93
2022/11/18 02:15:02;;;;;;;11.93;5.15;;;;;;;-3.39;63.31;98836.47;6221213;22;20019;-92
2022/11/18 02:18:29;;;;;;;8.70;4.25;;;;;;;-3.21;62.02;98825.63;6251646;22;20023;-93
2022/11/18 02:21:54;;;;;;;11.23;4.57;;;;;;;-3.40;62.54;98814.28;6227222;22;20069;-90
2022/11/18 02:25:07;;;;;;;8.75;3.83;;;;;;;-3.33;62.65;98808.81;6227105;22;20019;-93
2022/11/18 02:32:22;;;;;;;12.23;4.38;;;;;;;-3.17;62.45;98809.94;6247950;22;20088;-93
2022/11/18 02:35:13;;;;;;;11.18;4.72;;;;;;;-3.24;62.01;98812.75;6220456;23;20028;-93
2022/11/18 02:41:51;;;;;;;8.65;4.18;;;;;;;-3.45;62.21;98749.22;6100806;23;20028;-92
2022/11/18 02:45:48;;;;;;;9.70;3.88;;;;;;;-3.13;61.43;98809.22;6127462;23;20021;-91
2022/11/18 02:49:12;;;;;;;4.57;2.55;;;;;;;-3.20;61.77;98800.53;6083935;23;20692;-89
2022/11/18 02:51:41;;;;;;;6.78;3.65;;;;;;;-3.49;62.54;98754.22;6133065;23;20025;-93
2022/11/18 02:54:15;;;;;;;8.43;4.22;;;;;;;-3.72;62.22;98723.03;6131944;23;20025;-91
2022/11/18 02:57:07;;;;;;;6.05;3.65;;;;;;;-3.24;61.88;98798.56;6135311;23;20025;-94
2022/11/18 02:59:37;;;;;;;9.65;3.88;;;;;;;-3.97;62.56;98711.78;6157158;23;20052;-87
2022/11/18 03:02:21;;;;;;;8.70;4.10;;;;;;;-3.27;63.13;98807.06;6132025;23;20025;-86
2022/11/18 03:05:00;;;;;;;9.93;4.53;;;;;;;-3.84;62.50;98715.03;6132688;23;20022;-93
2022/11/18 03:07:33;;;;;;;8.48;3.15;;;;;;;-3.48;62.79;98768.38;6131638;23;20021;-93
2022/11/18 03:10:00;;;;;;;5.25;3.00;;;;;;;-3.56;62.09;98762.38;6083354;23;20049;-93
2022/11/18 03:13:04;;;;;;;14.35;4.13;;;;;;;-3.41;62.62;98793.13;6157233;23;20017;-89
2022/11/18 03:15:55;;;;;;;8.57;3.92;;;;;;;-3.31;62.46;98788.81;6131728;23;20026;-88
2022/11/18 03:18:37;;;;;;;8.13;3.90;;;;;;;-3.40;63.10;98760.84;6248749;23;20016;-92
2022/11/18 03:21:19;;;;;;;6.68;3.63;;;;;;;-3.49;62.40;98737.38;6184427;23;20028;-87
2022/11/18 03:24:25;;;;;;;10.70;3.67;;;;;;;-3.32;62.65;98783.69;6136446;23;20021;-91
2022/11/18 03:27:04;;;;;;;8.30;4.07;;;;;;;-3.48;62.51;98752.34;6110724;23;20237;-93
2022/11/18 03:30:16;;;;;;;9.18;3.25;;;;;;;-3.31;62.13;98788.00;6136731;23;20017;-91
2022/11/18 03:36:15;;;;;;;6.80;3.72;;;;;;;-3.58;62.91;98772.47;6185741;23;20418;-90
2022/11/18 03:39:14;;;;;;;8.10;3.65;;;;;;;-3.38;63.29;98790.81;6188632;23;20064;-93
2022/11/18 03:41:54;;;;;;;5.70;3.67;;;;;;;-3.50;62.96;98778.50;6163580;23;20119;-90
2022/11/18 03:45:16;;;;;;;8.00;3.97;;;;;;;-3.52;63.39;98788.63;6140234;23;20023;-94
2022/11/18 03:47:53;;;;;;;10.55;4.13;;;;;;;-3.84;63.48;98701.69;6147170;23;20344;-93
2022/11/18 03:51:26;;;;;;;6.78;3.78;;;;;;;-3.34;62.88;98772.44;6220957;23;20024;-89
2022/11/18 03:54:19;;;;;;;8.05;3.40;;;;;;;-3.73;62.84;98712.59;6173511;23;20019;-91
2022/11/18 03:57:16;;;;;;;7.57;3.47;;;;;;;-3.44;62.94;98769.56;6223839;23;20458;-91
2022/11/18 04:00:44;;;;;;;16.23;4.55;;;;;;;-3.30;62.98;98768.25;6200807;23;20024;-89
2022/11/18 04:06:25;;;;;;;7.40;3.40;;;;;;;-3.86;62.40;98665.59;6218723;22;20481;-91
2022/11/18 04:09:42;;;;;;;8.80;4.00;;;;;;;-3.18;62.82;98763.69;6205488;23;20012;-86
2022/11/18 04:12:13;;;;;;;12.10;4.80;;;;;;;-3.32;62.61;98746.28;6217752;23;20660;-88
2022/11/18 04:14:54;;;;;;;7.50;3.40;;;;;;;-3.70;61.93;98680.88;6250103;23;20023;-88
2022/11/18 04:17:45;;;;;;;11.15;4.40;;;;;;;-3.12;61.96;98768.06;6224630;23;20519;-91
2022/11/18 04:20:16;;;;;;;7.32;3.75;;;;;;;-3.33;62.31;98716.06;6251353;23;20039;-92
2022/11/18 04:23:16;;;;;;;10.65;4.85;;;;;;;-3.09;62.25;98758.75;6223098;23;20167;-89
2022/11/18 04:25:42;;;;;;;10.45;4.25;;;;;;;-3.49;62.31;98678.59;6251793;23;20027;-88
2022/11/18 04:28:34;;;;;;;9.82;4.63;;;;;;;-2.84;61.73;98769.16;6223170;23;20063;-88
2022/11/18 04:31:00;;;;;;;8.85;4.32;;;;;;;-3.03;61.57;98741.78;6171333;23;20020;-94
2022/11/18 04:33:26;;;;;;;9.02;3.65;;;;;;;-2.98;61.45;98744.56;6226681;23;20398;-93
2022/11/18 04:35:57;;;;;;;11.10;4.88;;;;;;;-3.13;61.81;98723.69;6203809;23;20080;-92
2022/11/18 04:38:43;;;;;;;9.82;4.53;;;;;;;-2.85;62.67;98759.47;6226344;23;20029;-92
2022/11/18 04:44:46;;;;;;;10.57;4.57;;;;;;;-3.39;61.46;98689.50;6249774;23;20027;-93
2022/11/18 04:47:28;;;;;;;8.38;4.40;;;;;;;-2.81;62.23;98759.81;6190842;23;20020;-87
2022/11/18 04:50:19;;;;;;;13.20;4.75;;;;;;;-2.94;61.63;98751.03;6252153;22;20024;-91
2022/11/18 04:53:20;;;;;;;10.20;4.85;;;;;;;-2.89;61.74;98759.16;6159594;23;20017;-89
2022/11/18 04:55:49;;;;;;;8.02;3.78;;;;;;;-3.34;61.61;98711.78;6185808;23;20040;-93
2022/11/18 04:58:15;;;;;;;8.00;3.85;;;;;;;-3.38;61.60;98701.78;6137466;23;20035;-89
2022/11/18 05:00:41;;;;;;;8.43;3.78;;;;;;;-3.23;62.31;98736.84;6112948;23;20503;-94
2022/11/18 05:03:13;;;;;;;7.75;4.47;;;;;;;-3.19;62.76;98743.34;6137773;23;20028;-94
2022/11/18 05:05:46;;;;;;;15.93;3.92;;;;;;;-3.38;62.12;98731.19;6162179;23;20021;-89
2022/11/18 05:08:38;;;;;;;8.40;4.18;;;;;;;-3.18;62.43;98760.19;6186310;23;20033;-89
2022/11/18 05:14:17;;;;;;;8.45;3.53;;;;;;;-3.76;62.20;98678.34;6184902;23;20100;-87
2022/11/18 05:16:43;;;;;;;7.85;4.35;;;;;;;-3.27;62.24;98750.94;6184169;23;20052;-91
2022/11/18 05:19:10;;;;;;;11.00;4.10;;;;;;;-3.59;62.36;98696.06;6183941;23;20032;-88
2022/11/18 05:21:37;;;;;;;9.52;3.50;;;;;;;-3.30;62.12;98746.88;6135849;23;20021;-89
2022/11/18 05:24:03;;;;;;;8.77;4.20;;;;;;;-3.20;62.62;98763.09;6224924;23;20082;-93
2022/11/18 05:26:36;;;;;;;7.10;3.85;;;;;;;-3.31;62.25;98737.22;6180308;23;20024;-86
2022/11/18 05:29:03;;;;;;;8.98;3.75;;;;;;;-3.11;61.96;98764.38;6194724;23;20051;-84
2022/11/18 05:31:29;;;;;;;9.07;4.40;;;;;;;-3.58;62.12;98704.88;6220476;23;20071;-84
2022/11/18 05:33:55;;;;;;;6.60;3.63;;;;;;;-3.29;62.46;98758.38;6220084;23;20016;-85
2022/11/18 05:38:50;;;;;;;7.07;3.33;;;;;;;-3.66;62.43;98711.41;6247092;23;20020;-88
2022/11/18 05:44:03;;;;;;;17.60;3.42;;;;;;;-3.38;62.55;98745.38;6219823;23;20027;-93
2022/11/18 05:46:30;;;;;;;6.30;3.30;;;;;;;-3.43;62.45;98749.81;6246483;23;20395;-84
2022/11/18 05:51:25;;;;;;;6.95;3.65;;;;;;;-3.14;62.38;98775.53;6248575;23;19963;-91
2022/11/18 05:53:53;;;;;;;7.03;3.42;;;;;;;-3.14;62.09;98780.88;6249393;23;20074;-84
2022/11/18 05:56:19;;;;;;;7.95;3.60;;;;;;;-3.11;62.20;98775.06;6248616;23;20020;-94
2022/11/18 05:58:46;;;;;;;18.05;4.00;;;;;;;-3.37;61.87;98717.59;6219658;23;20039;-88
2022/11/18 06:01:17;;;;;;;29.98;4.95;;;;;;;-3.11;62.35;98759.00;6218421;23;20020;-84
2022/11/18 06:03:43;;;;;;;9.07;4.05;;;;;;;-2.93;62.12;98775.91;6168728;23;20462;-93
2022/11/18 06:06:12;;;;;;;19.10;4.15;;;;;;;-3.29;62.43;98711.06;6249994;23;20027;-86
2022/11/18 06:08:47;;;;;;;13.23;4.97;;;;;;;-2.82;62.19;98780.41;6247976;23;20042;-85
2022/11/18 06:11:18;;;;;;;14.43;4.85;;;;;;;-3.29;62.42;98716.41;6244743;23;20038;-86
2022/11/18 06:14:08;;;;;;;16.92;4.68;;;;;;;-3.18;61.71;98702.22;6245596;23;20028;-85
2022/11/18 06:45:04;;;;;;;29.98;4.97;;;;;;;-3.17;61.28;98701.16;6249668;23;20195;-86
2022/11/18 06:47:40;;;;;;;11.73;4.43;;;;;;;-3.10;61.82;98722.41;6223462;23;20019;-89
2022/11/18 06:50:06;;;;;;;11.98;4.18;;;;;;;-2.73;61.02;98762.91;6224421;23;20016;-87
2022/11/18 06:52:39;;;;;;;10.35;4.53;;;;;;;-2.71;61.27;98771.53;6222668;23;20012;-87
2022/11/18 06:55:07;;;;;;;26.88;4.80;;;;;;;-2.84;61.45;98758.44;6248346;23;20039;-94
2022/11/18 06:57:34;;;;;;;17.67;3.85;;;;;;;-2.90;61.68;98770.91;6220760;23;20019;-85
2022/11/18 07:00:00;;;;;;;11.40;4.38;;;;;;;-3.22;61.95;98726.97;6249619;23;20103;-93
2022/11/18 07:02:26;;;;;;;8.93;4.13;;;;;;;-3.20;62.33;98714.19;6172121;23;20020;-86
2022/11/18 07:04:52;;;;;;;19.20;4.97;;;;;;;-3.14;62.04;98699.88;6221482;23;20381;-91
2022/11/18 07:07:19;;;;;;;7.50;4.38;;;;;;;-2.77;61.55;98751.09;6198778;23;20047;-87
2022/11/18 07:09:45;;;;;;;15.80;5.07;;;;;;;-2.67;61.14;98769.19;6222301;23;20024;-86
2022/11/18 07:12:11;;;;;;;16.55;4.10;;;;;;;-2.86;61.25;98744.50;6248740;23;20027;-94
2022/11/18 07:14:38;;;;;;;;;;;;;;;-2.60;61.15;98773.31;6224568;23;20476;-86
2022/11/18 07:17:04;;;;;;;14.45;3.97;;;;;;;-2.85;61.37;98757.63;6227257;23;19927;-93
2022/11/18 07:19:33;;;;;;;16.23;5.35;;;;;;;-2.87;61.76;98759.72;6251168;23;20039;-95
2022/11/18 07:22:02;;;;;;;13.07;3.80;;;;;;;-2.70;61.50;98780.38;6251632;23;20023;-87
2022/11/18 07:24:29;;;;;;;14.07;4.40;;;;;;;-3.14;61.79;98730.09;6249887;23;20016;-93
2022/11/18 07:26:55;;;;;;;31.25;4.93;;;;;;;-2.76;61.98;98776.78;6199830;23;20028;-85
2022/11/18 07:29:21;;;;;;;16.05;5.22;;;;;;;-3.18;62.17;98731.63;6224917;23;20016;-90
2022/11/18 07:31:55;;;;;;;18.70;5.63;;;;;;;-2.96;62.23;98779.88;6252047;23;20071;-85
2022/11/18 07:34:21;;;;;;;14.05;3.78;;;;;;;-2.90;62.54;98764.75;6252712;23;20070;-92
2022/11/18 07:36:48;;;;;;;11.18;4.32;;;;;;;-2.73;62.06;98778.16;6252514;23;20020;-93
2022/11/18 07:39:14;;;;;;;12.52;3.67;;;;;;;-2.79;61.91;98768.41;6198309;23;20107;-86
2022/11/18 07:41:41;;;;;;;7.60;3.33;;;;;;;-3.00;62.40;98756.53;6224630;23;20016;-95
2022/11/18 07:44:10;;;;;;;26.42;5.22;;;;;;;-3.25;62.62;98712.22;6249771;23;20071;-95
2022/11/18 07:46:46;;;;;;;9.07;4.07;;;;;;;-3.17;62.29;98717.19;6251313;23;20024;-84
2022/11/18 07:49:12;;;;;;;7.68;3.67;;;;;;;-2.96;61.42;98737.09;6250507;23;20067;-86
2022/11/18 07:51:39;;;;;;;19.63;4.78;;;;;;;-3.09;61.63;98699.94;6246835;23;20148;-87
2022/11/18 07:54:10;;;;;;;9.77;4.53;;;;;;;-2.76;61.71;98751.91;6195386;23;20022;-93
2022/11/18 07:56:36;;;;;;;15.38;5.18;;;;;;;-2.53;61.44;98786.56;6248085;23;20460;-86
2022/11/18 07:59:03;;;;;;;7.93;3.78;;;;;;;-2.55;61.57;98777.97;6223311;23;20023;-85
2022/11/18 08:01:30;;;;;;;10.45;5.05;;;;;;;-2.89;61.41;98727.06;6198421;23;20016;-85
2022/11/18 08:04:08;;;;;;;11.27;4.10;;;;;;;-2.81;61.42;98751.78;6225260;23;20016;-94
2022/11/18 08:06:37;;;;;;;12.00;4.28;;;;;;;-2.63;61.50;98784.50;6218751;23;20020;-85
2022/11/18 08:09:04;;;;;;;;;;;;;;;-2.63;61.74;98800.56;6220752;23;20379;-85
2022/11/18 08:11:30;;;;;;;13.73;4.78;;;;;;;-2.91;61.90;98747.09;6248283;23;19918;-85
2022/11/18 08:13:56;;;;;;;27.50;6.22;;;;;;;-2.77;61.81;98761.78;6249147;23;20051;-86
2022/11/18 08:16:25;;;;;;;21.80;6.03;;;;;;;-2.67;60.93;98737.88;6250379;23;20103;-84
2022/11/18 08:18:51;;;;;;;15.98;4.85;;;;;;;-2.43;60.58;98786.72;6251437;23;20015;-93
2022/11/18 08:21:20;;;;;;;23.47;5.33;;;;;;;-2.26;60.90;98781.38;6197109;23;20016;-84
2022/11/18 08:23:52;;;;;;;11.27;4.80;;;;;;;-2.16;60.22;98786.91;6249526;23;20016;-85
2022/11/18 08:26:18;;;;;;;8.00;4.10;;;;;;;-2.42;59.90;98756.25;6250987;23;20023;-85
2022/11/18 08:28:45;;;;;;;14.57;6.50;;;;;;;-2.18;60.13;98793.59;6222105;23;20031;-83
2022/11/18 08:31:13;;;;;;;11.88;4.65;;;;;;;-2.63;60.53;98736.34;6252795;23;20016;-90
2022/11/18 08:34:07;;;;;;;15.70;5.47;;;;;;;-2.20;60.56;98793.00;6200280;23;20016;-94
2022/11/18 08:36:37;;;;;;;13.45;5.57;;;;;;;-2.02;61.42;98798.13;6180723;23;20039;-91
2022/11/18 08:39:06;;;;;;;27.10;5.35;;;;;;;-2.44;60.07;98717.41;6201018;23;20016;-92
2022/11/18 08:41:38;;;;;;;25.63;4.63;;;;;;;-2.35;59.54;98742.72;6200310;23;20349;-91
2022/11/18 08:44:06;;;;;;;19.35;4.97;;;;;;;-2.29;59.76;98757.78;6198827;23;20042;-93
2022/11/18 08:46:49;;;;;;;11.48;4.97;;;;;;;-2.19;59.90;98763.28;6196363;23;20020;-91
2022/11/18 08:49:15;;;;;;;20.33;4.97;;;;;;;-2.55;59.87;98731.66;6167289;23;20101;-91
2022/11/18 08:51:42;;;;;;;21.73;5.20;;;;;;;-2.31;60.08;98765.25;6145796;23;20028;-92
2022/11/18 08:54:08;;;;;;;14.57;5.30;;;;;;;-2.45;60.20;98746.03;6191006;23;20042;-92
2022/11/18 08:56:38;;;;;;;14.30;5.20;;;;;;;-2.45;60.03;98727.31;6191824;23;20025;-90
2022/11/18 08:59:08;;;;;;;15.65;6.20;;;;;;;-1.98;59.75;98771.69;6165070;23;20027;-90
2022/11/18 09:01:36;;;;;;;9.45;4.82;;;;;;;-2.61;59.11;98685.28;6143384;23;20081;-94
2022/11/18 09:04:03;;;;;;;23.42;5.35;;;;;;;-2.03;59.52;98787.66;6142786;23;20455;-91
2022/11/18 09:06:30;;;;;;;20.83;5.35;;;;;;;-2.18;59.75;98772.97;6193237;23;20071;-88
2022/11/18 09:09:07;;;;;;;9.02;4.63;;;;;;;-2.47;59.82;98736.63;6199701;22;20315;-91
2022/11/18 09:12:44;;;;;;;15.23;5.22;;;;;;;-2.10;59.81;98811.09;6205755;23;20044;-92
2022/11/18 09:15:12;;;;;;;12.70;4.97;;;;;;;-2.51;60.00;98746.19;6183476;23;20012;-92
2022/11/18 09:17:38;;;;;;;;;;;;;;;-1.92;60.07;98817.03;6172877;23;20015;-85
2022/11/18 09:20:04;;;;;;;9.77;5.20;;;;;;;-1.99;59.75;98786.09;6246200;23;19969;-85
2022/11/18 09:22:30;;;;;;;8.75;5.00;;;;;;;-1.67;59.81;98827.31;6169286;23;20016;-85
2022/11/18 09:24:57;;;;;;;9.38;4.82;;;;;;;-2.04;60.42;98775.31;6219534;23;20020;-88
2022/11/18 09:27:36;;;;;;;13.90;5.05;;;;;;;-1.61;59.65;98819.38;6194171;23;20016;-86
2022/11/18 09:30:03;;;;;;;9.07;4.43;;;;;;;-1.73;59.39;98822.13;6245653;23;20012;-85
2022/11/18 09:32:38;;;;;;;;;;;;;;;-1.80;59.19;98816.13;6253278;23;20051;-87
2022/11/18 09:35:04;;;;;;;9.38;4.38;;;;;;;-1.99;59.57;98783.41;6253662;23;20006;-85
2022/11/18 09:37:32;;;;;;;19.83;4.68;;;;;;;-1.87;59.70;98796.75;6224573;23;20023;-88
2022/11/18 09:39:58;;;;;;;9.23;4.13;;;;;;;-1.97;59.73;98787.50;6209151;23;20095;-85
2022/11/18 09:42:39;;;;;;;15.02;4.50;;;;;;;-1.84;60.05;98815.00;6232691;23;20267;-85
2022/11/18 09:45:30;;;;;;;11.05;4.82;;;;;;;-2.06;60.18;98770.19;6179766;23;20016;-84
2022/11/18 09:48:02;;;;;;;8.48;4.35;;;;;;;-1.89;60.49;98818.41;6235073;23;20024;-84
2022/11/18 09:51:00;;;;;;;10.75;5.25;;;;;;;-1.78;60.72;98828.25;6262013;23;20023;-85
2022/11/18 09:53:26;;;;;;;21.40;5.50;;;;;;;-2.06;61.21;98777.44;6252067;23;20020;-86
2022/11/18 09:56:02;;;;;;;10.55;5.28;;;;;;;-1.90;60.39;98790.81;6224570;23;20016;-89
2022/11/18 09:58:35;;;;;;;13.50;4.97;;;;;;;-1.82;59.82;98803.00;6251353;23;20016;-86
2022/11/18 10:01:08;;;;;;;16.38;5.65;;;;;;;-1.82;60.18;98802.16;6227693;23;20016;-86
2022/11/18 10:03:37;;;;;;;8.73;4.63;;;;;;;-1.77;60.57;98832.53;6176936;23;20020;-89
2022/11/18 10:06:17;;;;;;;17.98;5.88;;;;;;;-2.04;60.66;98786.03;6232480;23;20038;-87
2022/11/18 10:09:12;;;;;;;13.90;5.20;;;;;;;-1.88;60.69;98836.13;6216158;23;20023;-91
2022/11/18 10:12:07;;;;;;;8.93;4.47;;;;;;;-1.93;60.52;98830.66;6223480;23;20022;-86
2022/11/18 10:15:14;;;;;;;9.20;4.55;;;;;;;-1.76;60.78;98834.16;6221979;23;20018;-86
2022/11/18 10:18:05;;;;;;;14.20;5.13;;;;;;;-1.69;60.36;98839.34;6171232;23;20023;-84
2022/11/18 10:20:43;;;;;;;11.38;5.38;;;;;;;-1.79;60.22;98839.19;6172224;23;20346;-86
2022/11/18 10:23:27;;;;;;;8.25;4.30;;;;;;;-2.06;60.02;98804.19;6223593;23;20012;-88
2022/11/18 10:26:03;;;;;;;11.85;4.55;;;;;;;-2.03;60.00;98814.44;6253114;23;20027;-90
2022/11/18 10:28:41;;;;;;;8.02;4.75;;;;;;;-2.55;60.00;98712.91;6254545;23;20024;-87
2022/11/18 10:31:10;;;;;;;9.13;4.25;;;;;;;-2.15;60.42;98785.88;6260156;23;20074;-84
2022/11/18 10:33:39;;;;;;;20.15;5.60;;;;;;;-2.27;60.42;98760.22;6233710;23;20046;-84
2022/11/18 10:36:15;;;;;;;8.85;3.88;;;;;;;-1.87;60.40;98836.94;6260105;23;20012;-85
2022/11/18 10:38:42;;;;;;;9.80;4.88;;;;;;;-2.02;60.97;98837.47;6259340;23;20000;-85
2022/11/18 10:41:14;;;;;;;11.88;4.75;;;;;;;-1.97;61.04;98856.31;6258101;23;20043;-84
2022/11/18 10:43:52;;;;;;;10.20;4.72;;;;;;;-2.31;61.04;98784.00;6229833;23;20035;-87
2022/11/18 10:46:29;;;;;;;9.63;4.82;;;;;;;-1.99;61.39;98855.75;6228050;23;20021;-86
2022/11/18 10:49:18;;;;;;;11.77;4.80;;;;;;;-1.99;61.14;98856.53;6180033;23;20027;-84
2022/11/18 10:52:09;;;;;;;9.43;4.80;;;;;;;-1.97;61.25;98853.63;6267117;23;20020;-84
2022/11/18 10:54:37;;;;;;;11.30;4.75;;;;;;;-1.97;61.22;98859.81;6177087;23;20072;-87
2022/11/18 10:57:18;;;;;;;8.38;5.18;;;;;;;-1.98;61.08;98858.19;6229532;23;20043;-90
2022/11/18 10:59:45;;;;;;;18.33;5.22;;;;;;;-1.91;61.19;98861.53;6256548;23;20016;-90
2022/11/18 11:02:39;;;;;;;11.60;5.75;;;;;;;-1.89;61.28;98855.91;6257493;23;20071;-86
2022/11/18 11:05:20;;;;;;;13.95;5.10;;;;;;;-1.84;60.86;98856.00;6252771;23;20023;-84
2022/11/18 11:08:04;;;;;;;13.48;5.20;;;;;;;-2.25;61.71;98783.03;6225613;23;20043;-85
2022/11/18 11:10:30;;;;;;;10.63;5.70;;;;;;;-1.99;60.83;98823.59;6222875;23;20016;-94
2022/11/18 11:13:09;;;;;;;10.87;5.20;;;;;;;-1.83;60.74;98862.97;6225823;23;20028;-86
2022/11/18 11:15:44;;;;;;;11.00;3.90;;;;;;;-1.97;60.71;98845.59;6249948;23;20023;-86
2022/11/18 11:21:26;;;;;;;16.58;5.75;;;;;;;-2.20;61.66;98860.75;6246777;23;20357;-85
2022/11/18 11:24:11;;;;;;;17.20;5.60;;;;;;;-2.22;61.77;98835.25;6245751;23;20016;-83
2022/11/18 11:26:56;;;;;;;10.75;4.68;;;;;;;-2.02;61.91;98883.84;6224811;23;20076;-85
2022/11/18 11:29:44;;;;;;;12.80;5.82;;;;;;;-1.92;62.14;98892.03;6222279;23;20012;-86
2022/11/18 11:32:53;;;;;;;24.70;6.50;;;;;;;-1.90;62.07;98897.94;6252152;23;20016;-84
2022/11/18 11:35:32;;;;;;;21.70;6.43;;;;;;;-1.91;62.47;98890.16;6250752;23;20075;-92
2022/11/18 11:38:19;;;;;;;12.68;5.60;;;;;;;-2.03;62.95;98881.38;6228618;23;20027;-88
2022/11/18 11:41:20;;;;;;;21.08;5.97;;;;;;;-1.92;62.33;98875.13;6154754;23;20456;-84
2022/11/18 11:44:08;;;;;;;21.13;6.43;;;;;;;-1.83;61.78;98892.44;6152097;23;20025;-84
2022/11/18 11:50:07;;;;;;;34.17;6.55;;;;;;;-1.87;61.62;98859.16;6153604;23;20028;-85
2022/11/18 11:53:09;;;;;;;15.60;6.03;;;;;;;-1.90;61.95;98873.03;6081577;23;20028;-84
2022/11/18 11:56:01;;;;;;;13.82;5.05;;;;;;;-1.98;61.86;98874.25;6104757;23;20856;-88
2022/11/18 11:58:48;;;;;;;17.52;5.47;;;;;;;-1.76;62.58;98903.00;6150231;23;20558;-82
2022/11/18 12:01:49;;;;;;;32.92;6.78;;;;;;;-1.80;62.08;98894.63;6152948;23;20018;-87
2022/11/18 12:04:33;;;;;;;16.48;5.78;;;;;;;-1.87;62.36;98907.38;6075142;23;20024;-87
2022/11/18 12:07:05;;;;;;;30.50;6.53;;;;;;;-1.85;62.36;98894.56;6152336;23;20398;-83
2022/11/18 12:09:31;;;;;;;22.67;5.70;;;;;;;-1.67;62.42;98904.22;6127062;23;20017;-84
2022/11/18 12:12:55;;;;;;;16.65;5.88;;;;;;;-2.11;62.07;98852.34;6153439;23;20025;-90
2022/11/18 12:15:24;;;;;;;22.77;6.70;;;;;;;-1.95;62.07;98862.25;6132477;23;20129;-84
2022/11/18 12:18:12;;;;;;;21.90;6.88;;;;;;;-1.66;62.41;98921.91;6203099;23;20091;-84
2022/11/18 12:20:45;;;;;;;12.35;4.93;;;;;;;-1.76;62.07;98930.59;6170168;23;20469;-85
2022/11/18 12:23:26;;;;;;;23.70;5.78;;;;;;;-1.77;62.00;98928.97;6246581;23;20016;-84
2022/11/18 12:25:58;;;;;;;15.10;4.90;;;;;;;-1.98;62.00;98911.75;6246075;23;20019;-84
2022/11/18 12:28:40;;;;;;;61.70;7.40;;;;;;;-1.86;62.36;98948.38;6217424;23;20016;-84
2022/11/18 12:31:18;;;;;;;36.13;6.40;;;;;;;-1.96;62.85;98922.22;6218789;23;20544;-84
2022/11/18 12:33:53;;;;;;;13.75;6.35;;;;;;;-1.78;62.87;98943.44;6192991;23;20071;-84
2022/11/18 12:36:41;;;;;;;20.52;6.03;;;;;;;-1.83;63.58;98946.03;6245125;23;20020;-84
2022/11/18 12:39:22;;;;;;;29.30;6.63;;;;;;;-1.83;63.05;98943.34;6167899;23;20024;-85
2022/11/18 12:44:44;;;;;;;25.50;5.97;;;;;;;-1.77;62.54;98955.78;6243371;23;20349;-85
2022/11/18 12:47:15;;;;;;;10.88;5.03;;;;;;;-1.80;62.48;98950.91;6242755;23;20020;-86
2022/11/18 12:49:44;;;;;;;17.75;6.40;;;;;;;-1.63;62.68;98966.19;6244425;23;20023;-84
2022/11/18 12:52:47;;;;;;;14.90;5.55;;;;;;;-1.71;62.25;98973.56;6244061;23;20719;-84
2022/11/18 12:55:26;;;;;;;16.23;5.30;;;;;;;-1.87;62.53;98942.19;6202214;23;20023;-85
2022/11/18 12:57:53;;;;;;;12.80;5.28;;;;;;;-2.05;62.18;98945.06;6218255;23;20362;-83
2022/11/18 13:00:25;;;;;;;14.55;5.22;;;;;;;-1.77;62.35;98965.69;6168535;23;20023;-89
2022/11/18 13:02:53;;;;;;;12.43;5.47;;;;;;;-1.93;62.72;98951.19;6219225;23;20016;-85
2022/11/18 13:05:21;;;;;;;21.17;4.90;;;;;;;-1.85;62.32;98966.91;6168435;23;20070;-83
2022/11/18 13:08:13;;;;;;;;;;;;;;;-2.04;62.80;98971.63;6234175;23;20347;-89
2022/11/18 13:17:50;;;;;;;23.05;6.20;;;;;;;-2.16;62.22;98941.41;6244521;23;20020;-83
2022/11/18 13:19:57;;;;;;;13.10;5.22;;;;;;;-1.98;61.97;98976.03;6091358;23;20030;-82
2022/11/18 13:25:23;;;;;;;28.13;5.38;;;;;;;-2.07;62.19;99001.56;6067922;23;20029;-84
2022/11/18 13:28:00;;;;;;;26.00;5.55;;;;;;;-2.09;61.80;98976.06;6043510;23;20158;-85
2022/11/18 13:30:27;;;;;;;12.30;4.72;;;;;;;-1.98;61.90;99013.53;6065435;23;20098;-86
2022/11/18 13:33:01;;;;;;;25.13;6.28;;;;;;;-2.16;61.72;98990.41;6092099;23;20537;-85
2022/11/18 13:35:28;;;;;;;16.15;6.18;;;;;;;-2.64;62.24;98926.56;6068330;23;20026;-88
2022/11/18 13:38:07;;;;;;;34.22;6.22;;;;;;;-2.09;61.93;99019.72;6091375;23;20501;-87
2022/11/18 13:41:03;;;;;;;15.63;5.72;;;;;;;-2.32;62.12;98975.09;6090962;23;20445;-83
2022/11/18 13:43:33;;;;;;;28.10;6.53;;;;;;;-2.18;61.56;98989.84;6043613;23;20021;-86
2022/11/18 13:46:18;;;;;;;15.05;5.80;;;;;;;-2.40;61.29;98936.13;6068755;23;20345;-86
2022/11/18 13:48:52;;;;;;;28.20;6.65;;;;;;;-2.39;61.22;98931.59;6091981;23;20342;-82
2022/11/18 13:51:18;;;;;;;20.75;6.05;;;;;;;-1.79;61.27;99026.72;6091063;23;20033;-85
2022/11/18 13:53:44;;;;;;;24.70;6.65;;;;;;;-2.16;61.36;98973.53;6044531;23;20026;-83
2022/11/18 13:56:19;;;;;;;24.65;6.07;;;;;;;-2.06;61.73;98983.63;6087688;23;20014;-86